Time;durP1;ratioP1;P1;durP2;ratioP2;P2;SDS_P1;SDS_P2;PMS_P1;PMS_P2;Temp;Humidity;BMP_temperature;BMP_pressure;BME280_temperature;BME280_humidity;BME280_pressure;Samples;Min_cycle;Max_cycle;Signal;HPM_P1;HPM_P2
2023/09/24 00:01:07;;;;;;;16.45;2.08;;;;;;;13.20;75.30;101041.72;5019025;28;20041;-75
2023/09/24 00:03:37;;;;;;;2.33;0.68;;;;;;;13.13;75.41;101038.41;5020542;28;20062;-75
2023/09/24 00:06:07;;;;;;;0.80;0.50;;;;;;;13.18;75.34;101054.03;5024549;28;20103;-77
2023/09/24 00:08:34;;;;;;;0.80;0.40;;;;;;;13.16;75.37;101061.94;5019895;28;20513;-76
2023/09/24 00:11:02;;;;;;;1.80;0.60;;;;;;;13.16;75.36;101061.06;5020481;28;20049;-75
2023/09/24 00:13:33;;;;;;;2.65;0.50;;;;;;;13.13;75.62;101062.00;5018833;28;20050;-76
2023/09/24 00:16:04;;;;;;;2.72;0.40;;;;;;;13.12;75.30;101065.53;5021359;28;20111;-76
2023/09/24 00:18:32;;;;;;;3.15;0.68;;;;;;;13.11;75.47;101061.19;5014763;28;20394;-76
2023/09/24 00:21:01;;;;;;;1.88;0.40;;;;;;;13.09;75.42;101070.88;5016064;28;20046;-76
2023/09/24 00:23:29;;;;;;;0.52;0.40;;;;;;;13.09;75.39;101076.13;5020628;28;20049;-76
2023/09/24 00:25:57;;;;;;;2.05;0.40;;;;;;;13.08;75.40;101074.38;5019173;28;20062;-76
2023/09/24 00:28:24;;;;;;;0.57;0.40;;;;;;;13.07;75.43;101075.28;5019594;28;20053;-76
2023/09/24 00:30:52;;;;;;;2.33;0.50;;;;;;;13.05;75.48;101072.69;5020543;28;20458;-76
2023/09/24 00:33:21;;;;;;;1.55;0.40;;;;;;;13.03;75.31;101071.88;5016587;28;20510;-76
2023/09/24 00:35:48;;;;;;;0.55;0.50;;;;;;;13.01;75.59;101072.81;5024057;28;20107;-75
2023/09/24 00:38:17;;;;;;;0.63;0.40;;;;;;;13.02;75.56;101074.53;5017832;28;20055;-76
2023/09/24 00:40:44;;;;;;;1.88;0.40;;;;;;;12.97;75.54;101074.63;5019969;28;20552;-75
2023/09/24 00:43:30;;;;;;;0.43;0.38;;;;;;;13.00;75.45;101077.16;5018130;28;20048;-78
2023/09/24 00:45:58;;;;;;;0.85;0.40;;;;;;;12.97;75.59;101077.25;5016884;28;20042;-72
2023/09/24 00:48:29;;;;;;;1.10;0.30;;;;;;;12.97;75.31;101079.00;5015824;28;20478;-72
2023/09/24 00:50:58;;;;;;;0.40;0.30;;;;;;;12.95;75.24;101084.31;5019284;28;20503;-72
2023/09/24 00:53:28;;;;;;;0.75;0.38;;;;;;;12.93;75.29;101085.22;5020972;28;20054;-72
2023/09/24 00:55:56;;;;;;;1.67;0.30;;;;;;;12.91;75.29;101082.63;5012564;28;20049;-72
2023/09/24 00:58:25;;;;;;;3.33;0.35;;;;;;;12.91;75.45;101087.88;5015135;28;20056;-72
2023/09/24 01:00:53;;;;;;;1.92;0.40;;;;;;;12.89;75.54;101087.03;5017602;28;20477;-72
2023/09/24 01:03:22;;;;;;;0.93;0.35;;;;;;;12.88;75.64;101093.19;5015974;28;20045;-72
2023/09/24 01:05:49;;;;;;;0.50;0.40;;;;;;;12.87;75.73;101101.09;5016692;28;20046;-71
2023/09/24 01:08:18;;;;;;;1.60;0.40;;;;;;;12.87;75.74;101101.09;5016455;28;20053;-72
2023/09/24 01:10:47;;;;;;;0.60;0.60;;;;;;;12.83;75.86;101097.66;5015768;28;20161;-71
2023/09/24 01:13:19;;;;;;;1.80;0.40;;;;;;;12.83;75.88;101111.66;5014789;28;20057;-71
2023/09/24 01:15:46;;;;;;;0.70;0.40;;;;;;;12.85;75.91;101113.38;5018175;28;20395;-72
2023/09/24 01:18:14;;;;;;;0.30;0.30;;;;;;;12.82;76.02;101117.78;5012759;28;20049;-71
2023/09/24 01:20:41;;;;;;;1.33;0.40;;;;;;;12.82;76.29;101115.16;5022919;28;20060;-72
2023/09/24 01:23:11;;;;;;;1.95;0.50;;;;;;;12.81;76.01;101115.22;5015455;28;20045;-72
2023/09/24 01:25:37;;;;;;;2.15;0.40;;;;;;;12.80;76.13;101116.94;5021536;28;20159;-72
2023/09/24 01:28:05;;;;;;;0.88;0.40;;;;;;;12.81;76.11;101116.06;5015625;28;20064;-71
2023/09/24 01:30:33;;;;;;;1.27;0.40;;;;;;;12.78;76.03;101126.63;5020191;28;20050;-71
2023/09/24 01:33:01;;;;;;;0.50;0.30;;;;;;;12.78;76.06;101128.41;5018935;28;20131;-72
2023/09/24 01:35:29;;;;;;;0.57;0.30;;;;;;;12.76;76.08;101120.53;5021612;28;20049;-71
2023/09/24 01:37:57;;;;;;;2.03;0.30;;;;;;;12.77;76.16;101135.38;5020916;28;20041;-72
2023/09/24 01:40:32;;;;;;;1.52;0.30;;;;;;;12.75;76.14;101131.94;5019319;28;20512;-72
2023/09/24 01:42:59;;;;;;;;;;;;;;;12.75;75.93;101144.16;5017150;28;20046;-71
2023/09/24 01:45:26;;;;;;;1.70;0.40;;;;;;;12.73;75.80;101141.59;5018697;28;19927;-71
2023/09/24 01:47:54;;;;;;;0.45;0.30;;;;;;;12.72;75.78;101145.13;5017642;28;20502;-71
2023/09/24 01:50:26;;;;;;;2.00;0.30;;;;;;;12.70;75.80;101157.38;5019800;28;20097;-71
2023/09/24 01:52:53;;;;;;;0.93;0.30;;;;;;;12.68;75.83;101153.91;5022412;28;20064;-72
2023/09/24 01:55:21;;;;;;;0.30;0.30;;;;;;;12.68;76.04;101148.69;5015767;28;20087;-71
2023/09/24 01:57:50;;;;;;;0.68;0.35;;;;;;;12.67;76.20;101146.09;5021884;28;20144;-72
2023/09/24 02:00:21;;;;;;;0.88;0.40;;;;;;;12.66;75.97;101152.22;5022292;28;20049;-71
2023/09/24 02:02:50;;;;;;;0.43;0.30;;;;;;;12.64;76.14;101140.94;5020607;28;20129;-71
2023/09/24 02:05:17;;;;;;;1.73;0.30;;;;;;;12.63;76.12;101145.28;5019147;28;20121;-71
2023/09/24 02:07:43;;;;;;;2.38;0.30;;;;;;;12.62;76.01;101151.44;5016421;28;20057;-72
2023/09/24 02:10:13;;;;;;;1.73;0.30;;;;;;;12.62;76.01;101150.56;5022053;28;20052;-71
2023/09/24 02:12:40;;;;;;;1.52;0.30;;;;;;;12.56;76.10;101155.03;5020110;28;20054;-72
2023/09/24 02:15:12;;;;;;;0.45;0.22;;;;;;;12.58;76.09;101160.28;5018872;28;20049;-76
2023/09/24 02:17:40;;;;;;;0.60;0.30;;;;;;;12.57;75.95;101158.53;5025955;28;20491;-76
2023/09/24 02:20:22;;;;;;;1.95;0.30;;;;;;;12.56;76.00;101152.44;5023695;28;20072;-76
2023/09/24 02:22:49;;;;;;;2.05;0.88;;;;;;;12.55;76.01;101160.31;5021792;28;20053;-76
2023/09/24 02:25:16;;;;;;;1.20;0.30;;;;;;;12.53;76.02;101156.88;5021164;28;20064;-76
2023/09/24 02:27:44;;;;;;;4.55;0.57;;;;;;;12.50;75.97;101163.03;5021609;28;20188;-77
2023/09/24 02:30:13;;;;;;;3.13;0.30;;;;;;;12.50;75.93;101156.94;5019785;28;20071;-77
2023/09/24 02:32:40;;;;;;;2.15;0.40;;;;;;;12.49;75.85;101163.06;5020520;28;20129;-77
2023/09/24 02:35:10;;;;;;;0.93;0.30;;;;;;;12.48;75.81;101158.72;5018444;28;20710;-77
2023/09/24 02:37:38;;;;;;;1.55;0.30;;;;;;;12.44;75.90;101162.31;5021029;28;20045;-76
2023/09/24 02:40:11;;;;;;;2.30;0.40;;;;;;;12.44;75.95;101160.53;5025301;28;20085;-76
2023/09/24 02:42:38;;;;;;;4.47;0.40;;;;;;;12.43;75.89;101164.03;5018949;28;20058;-75
2023/09/24 02:45:07;;;;;;;2.25;0.45;;;;;;;12.42;75.93;101164.09;5017461;28;20050;-76
2023/09/24 02:47:36;;;;;;;0.30;0.20;;;;;;;12.35;76.04;101153.72;5020768;28;20109;-76
2023/09/24 02:50:07;;;;;;;0.90;0.30;;;;;;;12.39;75.84;101162.38;5019125;28;20111;-76
2023/09/24 02:52:34;;;;;;;1.85;0.20;;;;;;;12.35;75.81;101164.22;5021140;28;20103;-75
2023/09/24 02:55:01;;;;;;;3.08;0.50;;;;;;;12.34;75.93;101161.59;5022168;28;20061;-75
2023/09/24 02:57:28;;;;;;;0.63;0.20;;;;;;;12.32;75.97;101156.41;5020678;28;20046;-76
2023/09/24 02:59:55;;;;;;;0.50;0.20;;;;;;;12.27;76.02;101153.03;5018126;28;20141;-76
2023/09/24 03:02:22;;;;;;;0.45;0.30;;;;;;;12.27;76.05;101155.63;5024861;28;20056;-75
2023/09/24 03:04:51;;;;;;;2.20;0.30;;;;;;;12.30;76.03;101170.44;5018057;28;20863;-75
2023/09/24 03:07:19;;;;;;;0.68;0.30;;;;;;;12.27;76.17;101173.13;5021388;28;20491;-73
2023/09/24 03:09:46;;;;;;;0.95;0.20;;;;;;;12.22;76.30;101165.34;5015059;28;21600;-73
2023/09/24 03:12:13;;;;;;;1.27;0.30;;;;;;;12.24;76.25;101171.41;5019494;28;20053;-73
2023/09/24 03:14:40;;;;;;;2.45;0.40;;;;;;;12.24;76.24;101179.28;5017707;28;20483;-73
2023/09/24 03:17:07;;;;;;;1.83;0.30;;;;;;;12.22;76.10;101175.81;5018137;28;20494;-73
2023/09/24 03:19:34;;;;;;;1.95;0.45;;;;;;;12.20;76.12;101182.81;5016302;28;20049;-73
2023/09/24 03:22:02;;;;;;;1.88;0.20;;;;;;;12.20;76.03;101181.97;5012904;28;20053;-74
2023/09/24 03:24:29;;;;;;;3.30;0.20;;;;;;;12.19;76.06;101185.50;5014397;28;20068;-73
2023/09/24 03:26:56;;;;;;;0.47;0.30;;;;;;;12.18;76.37;101194.22;5020429;28;20075;-76
2023/09/24 03:29:23;;;;;;;2.55;0.30;;;;;;;12.17;76.24;101197.72;5019432;28;20053;-75
2023/09/24 03:31:50;;;;;;;0.22;0.20;;;;;;;12.15;76.23;101200.38;5022701;28;20053;-75
2023/09/24 03:34:16;;;;;;;0.40;0.30;;;;;;;12.13;76.36;101197.78;5019891;28;20565;-76
2023/09/24 03:36:45;;;;;;;1.05;0.30;;;;;;;12.10;76.24;101197.00;5015255;28;20060;-76
2023/09/24 03:39:14;;;;;;;3.05;0.20;;;;;;;12.12;76.38;101208.28;5020296;28;20414;-76
2023/09/24 03:41:41;;;;;;;0.77;0.52;;;;;;;12.10;76.25;101218.81;5020529;28;20067;-76
2023/09/24 03:44:07;;;;;;;1.20;0.22;;;;;;;12.08;76.21;101220.56;5016253;28;20041;-75
2023/09/24 03:46:35;;;;;;;4.60;0.30;;;;;;;12.08;76.26;101222.34;5016978;28;20717;-76
2023/09/24 03:49:02;;;;;;;1.90;0.20;;;;;;;12.05;76.28;101225.00;5021861;28;20111;-76
2023/09/24 03:51:28;;;;;;;2.70;0.30;;;;;;;12.05;76.29;101241.56;5019622;28;20050;-76
2023/09/24 03:53:56;;;;;;;0.70;0.20;;;;;;;12.04;76.35;101234.63;5020065;28;20049;-75
2023/09/24 03:56:24;;;;;;;6.13;0.50;;;;;;;12.03;76.39;101237.25;5024279;28;20053;-76
2023/09/24 03:58:51;;;;;;;3.85;0.52;;;;;;;12.02;76.35;101246.00;5016892;28;20045;-76
2023/09/24 04:01:18;;;;;;;2.83;0.20;;;;;;;12.01;76.30;101244.25;5021882;28;20044;-75
2023/09/24 04:03:45;;;;;;;0.77;0.20;;;;;;;11.99;76.52;101246.94;5020719;28;20069;-75
2023/09/24 04:06:12;;;;;;;1.55;0.20;;;;;;;11.96;76.39;101246.97;5011659;28;20136;-76
2023/09/24 04:08:39;;;;;;;2.22;0.35;;;;;;;11.93;76.51;101244.41;5021492;28;20084;-76
2023/09/24 04:11:13;;;;;;;0.77;0.28;;;;;;;11.96;76.62;101246.13;5016031;28;20104;-76
2023/09/24 04:13:41;;;;;;;0.73;0.20;;;;;;;11.95;76.50;101252.22;5017645;28;20410;-75
2023/09/24 04:16:13;;;;;;;3.75;0.30;;;;;;;11.92;76.91;101254.03;5020124;28;20698;-77
2023/09/24 04:18:41;;;;;;;2.70;0.30;;;;;;;11.91;77.16;101251.41;5022206;28;20056;-78
2023/09/24 04:21:16;;;;;;;0.60;0.20;;;;;;;11.91;76.96;101257.50;5024784;28;20570;-77
2023/09/24 04:23:43;;;;;;;1.63;0.20;;;;;;;11.87;77.19;101253.22;5024375;28;20054;-78
2023/09/24 04:26:20;;;;;;;1.17;0.20;;;;;;;11.92;77.48;101263.59;5020861;28;20045;-77
2023/09/24 04:28:49;;;;;;;4.68;0.30;;;;;;;11.91;77.62;101267.97;5021493;28;20510;-80
2023/09/24 04:31:17;;;;;;;4.47;0.40;;;;;;;11.91;77.55;101270.59;5021835;28;20414;-77
2023/09/24 04:33:45;;;;;;;5.55;0.30;;;;;;;11.92;77.74;101277.59;5024602;28;20046;-77
2023/09/24 04:36:12;;;;;;;2.53;0.30;;;;;;;11.93;77.97;101274.06;5019837;28;20518;-71
2023/09/24 04:38:41;;;;;;;1.70;0.30;;;;;;;11.91;78.17;101272.38;5014436;28;20136;-71
2023/09/24 04:41:08;;;;;;;1.42;0.30;;;;;;;11.96;78.58;101285.41;5017633;28;20426;-71
2023/09/24 04:43:36;;;;;;;0.47;0.20;;;;;;;11.96;78.53;101282.78;5017308;28;20144;-71
2023/09/24 04:46:14;;;;;;;0.75;0.20;;;;;;;11.99;78.69;101290.56;5016795;28;20049;-72
2023/09/24 04:48:41;;;;;;;3.85;0.45;;;;;;;11.99;78.57;101287.97;5013291;28;20061;-70
2023/09/24 04:51:08;;;;;;;3.47;0.28;;;;;;;12.00;78.67;101292.28;5014727;28;20049;-70
2023/09/24 04:53:34;;;;;;;2.45;0.20;;;;;;;12.02;78.91;101295.75;5016658;28;20068;-71
2023/09/24 04:56:07;;;;;;;2.97;0.20;;;;;;;12.04;79.16;101301.81;5026158;28;20056;-70
2023/09/24 04:58:34;;;;;;;2.03;0.30;;;;;;;12.05;78.87;101308.81;5022387;28;20407;-70
2023/09/24 05:01:07;;;;;;;2.92;0.30;;;;;;;12.08;79.09;101308.75;5020104;28;20041;-71
2023/09/24 05:03:35;;;;;;;4.95;0.30;;;;;;;12.09;79.08;101310.47;5016692;28;20053;-72
2023/09/24 05:06:03;;;;;;;1.17;0.30;;;;;;;12.11;79.27;101313.94;5016317;28;20069;-71
2023/09/24 05:08:30;;;;;;;4.60;0.30;;;;;;;12.12;79.29;101311.31;5019410;28;20091;-71
2023/09/24 05:10:57;;;;;;;1.17;0.30;;;;;;;12.12;79.44;101306.06;5018062;28;20088;-72
2023/09/24 05:13:24;;;;;;;1.90;0.40;;;;;;;12.14;79.50;101308.66;5019351;28;20053;-71
2023/09/24 05:15:53;;;;;;;5.45;0.50;;;;;;;12.18;79.46;101310.34;5019061;28;20044;-70
2023/09/24 05:18:22;;;;;;;4.40;0.50;;;;;;;12.18;79.49;101318.19;5024693;28;20073;-71
2023/09/24 05:20:49;;;;;;;4.63;0.30;;;;;;;12.18;79.39;101320.81;5017767;28;20037;-71
2023/09/24 05:23:16;;;;;;;1.65;0.20;;;;;;;12.24;79.49;101325.94;5021486;28;20050;-70
2023/09/24 05:25:43;;;;;;;2.10;0.20;;;;;;;12.26;79.48;101324.16;5019437;28;20046;-75
2023/09/24 05:28:10;;;;;;;3.83;0.30;;;;;;;12.28;79.68;101329.38;5019066;28;20045;-75
2023/09/24 05:30:37;;;;;;;2.45;0.30;;;;;;;12.27;79.32;101325.91;5015012;28;20046;-74
2023/09/24 05:33:04;;;;;;;10.02;0.52;;;;;;;12.33;79.41;101336.28;5021719;28;20487;-75
2023/09/24 05:35:32;;;;;;;1.50;0.35;;;;;;;12.35;79.68;101344.09;5020513;28;20042;-73
2023/09/24 05:37:59;;;;;;;3.13;0.65;;;;;;;12.37;79.59;101353.66;5021510;28;20049;-74
2023/09/24 05:40:26;;;;;;;3.67;0.30;;;;;;;12.40;79.68;101357.13;5023143;28;20053;-75
2023/09/24 05:42:53;;;;;;;2.55;0.30;;;;;;;12.42;79.64;101360.59;5023863;28;20042;-74
2023/09/24 05:45:20;;;;;;;3.58;0.30;;;;;;;12.43;79.57;101357.06;5015753;28;20053;-71
2023/09/24 05:47:47;;;;;;;4.78;0.40;;;;;;;12.46;79.44;101367.50;5017348;28;20060;-71
2023/09/24 05:50:14;;;;;;;5.85;0.68;;;;;;;12.47;79.83;101359.63;5015758;28;20053;-71
2023/09/24 05:52:42;;;;;;;0.45;0.20;;;;;;;12.50;79.88;101363.94;5022855;28;20403;-71
2023/09/24 05:55:10;;;;;;;2.05;0.20;;;;;;;12.53;79.81;101366.50;5016634;28;20049;-71
2023/09/24 05:57:37;;;;;;;2.50;0.30;;;;;;;12.54;79.73;101371.72;5021576;28;20054;-71
2023/09/24 06:00:04;;;;;;;6.15;0.52;;;;;;;12.54;79.48;101378.72;5021650;28;20045;-71
2023/09/24 06:02:31;;;;;;;3.92;0.43;;;;;;;12.58;79.70;101377.78;5017587;28;20077;-71
2023/09/24 06:04:59;;;;;;;2.03;0.35;;;;;;;12.60;79.52;101382.09;5015175;28;20088;-71
2023/09/24 06:07:28;;;;;;;2.85;0.20;;;;;;;12.63;79.50;101385.56;5023166;28;21071;-71
2023/09/24 06:09:56;;;;;;;5.47;0.40;;;;;;;12.66;79.46;101385.50;5022585;28;20602;-72
2023/09/24 06:12:24;;;;;;;6.35;0.20;;;;;;;12.68;79.42;101388.97;5019601;28;20042;-71
2023/09/24 06:14:51;;;;;;;4.28;0.28;;;;;;;12.69;79.54;101388.91;5021730;28;20042;-71
2023/09/24 06:17:18;;;;;;;3.13;0.20;;;;;;;12.69;79.43;101391.53;5020098;28;20055;-71
2023/09/24 06:19:45;;;;;;;3.00;0.30;;;;;;;12.73;79.45;101393.25;5020508;28;20046;-71
2023/09/24 06:22:12;;;;;;;2.90;0.25;;;;;;;12.75;79.25;101396.72;5019168;28;20054;-72
2023/09/24 06:24:39;;;;;;;5.35;0.30;;;;;;;12.77;79.22;101400.16;5020980;28;20050;-72
2023/09/24 06:27:07;;;;;;;3.78;0.40;;;;;;;12.78;79.12;101399.28;5020011;28;20438;-71
2023/09/24 06:29:35;;;;;;;4.32;0.20;;;;;;;12.80;79.08;101397.47;5021234;28;20513;-71
2023/09/24 06:32:02;;;;;;;2.53;0.20;;;;;;;12.82;78.98;101400.06;5018898;28;20394;-71
2023/09/24 06:34:30;;;;;;;1.67;0.25;;;;;;;12.85;78.89;101401.78;5018245;28;20042;-73
2023/09/24 06:36:57;;;;;;;4.53;0.20;;;;;;;12.81;78.68;101391.34;5015832;28;20148;-71
2023/09/24 06:39:25;;;;;;;4.05;0.63;;;;;;;12.88;78.75;101409.59;5020961;28;20041;-72
2023/09/24 06:41:52;;;;;;;2.05;0.20;;;;;;;12.89;78.55;101412.16;5011023;28;20069;-71
2023/09/24 06:44:24;;;;;;;5.60;0.30;;;;;;;12.90;78.39;101406.06;5017084;28;20052;-71
2023/09/24 06:46:51;;;;;;;3.55;0.35;;;;;;;12.92;78.39;101409.53;5020079;28;20124;-72
2023/09/24 06:49:18;;;;;;;1.88;0.17;;;;;;;12.93;78.49;101410.38;5023179;28;20049;-71
2023/09/24 06:51:45;;;;;;;2.72;0.20;;;;;;;12.97;78.28;101420.75;5017151;28;20458;-73
2023/09/24 06:54:12;;;;;;;6.97;0.20;;;;;;;12.99;78.29;101418.13;5021038;28;20049;-71
2023/09/24 06:56:39;;;;;;;1.80;0.30;;;;;;;13.00;78.07;101422.47;5020516;28;20061;-75
2023/09/24 06:59:09;;;;;;;2.00;0.15;;;;;;;13.03;78.00;101425.03;5020892;28;20053;-75
2023/09/24 07:01:37;;;;;;;2.13;0.20;;;;;;;13.05;78.23;101420.63;5020141;28;20127;-73
2023/09/24 07:04:05;;;;;;;2.85;0.20;;;;;;;13.04;78.07;101413.66;5016024;28;20069;-73
2023/09/24 07:06:32;;;;;;;2.38;0.20;;;;;;;13.10;77.97;101425.81;5018616;28;20057;-74
2023/09/24 07:09:00;;;;;;;3.17;0.63;;;;;;;13.08;78.16;101422.34;5016580;28;20061;-74
2023/09/24 07:11:30;;;;;;;1.75;0.10;;;;;;;13.11;77.98;101422.28;5015406;28;20049;-73
2023/09/24 07:13:57;;;;;;;2.35;0.20;;;;;;;13.13;78.02;101429.22;5021851;28;20057;-73
2023/09/24 07:16:25;;;;;;;3.70;0.10;;;;;;;13.22;77.98;101428.19;5014476;28;20552;-73
2023/09/24 07:18:55;;;;;;;0.75;0.10;;;;;;;13.26;77.64;101433.41;5017585;28;20129;-73
2023/09/24 07:21:26;;;;;;;1.83;0.38;;;;;;;13.30;77.67;101431.56;5018911;28;20667;-73
2023/09/24 07:23:54;;;;;;;2.05;0.30;;;;;;;13.35;77.73;101436.72;5020652;28;20073;-74
2023/09/24 07:26:22;;;;;;;2.40;0.17;;;;;;;13.41;77.45;101447.13;5022110;28;20049;-73
2023/09/24 07:28:50;;;;;;;2.10;0.68;;;;;;;13.46;77.31;101438.25;5016948;28;20046;-73
2023/09/24 07:31:19;;;;;;;3.60;0.10;;;;;;;13.51;77.15;101443.41;5016839;28;20052;-70
2023/09/24 07:33:46;;;;;;;1.35;0.30;;;;;;;13.57;76.75;101440.66;5016278;28;20442;-74
2023/09/24 07:36:15;;;;;;;2.42;0.30;;;;;;;13.65;77.08;101443.97;5017994;28;20048;-73
2023/09/24 07:38:42;;;;;;;1.92;0.10;;;;;;;13.72;76.90;101450.84;5017707;28;20049;-73
2023/09/24 07:41:09;;;;;;;3.92;0.20;;;;;;;13.79;76.89;101446.31;5020095;28;20132;-73
2023/09/24 07:43:37;;;;;;;1.98;0.10;;;;;;;13.85;76.75;101450.59;5015283;28;20056;-72
2023/09/24 07:46:04;;;;;;;2.65;0.10;;;;;;;13.94;76.34;101460.88;5022349;28;20045;-77
2023/09/24 07:48:31;;;;;;;4.60;0.32;;;;;;;14.02;76.08;101469.47;5022051;28;20134;-76
2023/09/24 07:50:58;;;;;;;2.25;0.10;;;;;;;14.10;75.83;101470.16;5023552;28;20077;-76
2023/09/24 07:53:26;;;;;;;9.48;0.20;;;;;;;14.17;75.85;101481.41;5020343;28;20128;-75
2023/09/24 07:55:57;;;;;;;3.58;0.10;;;;;;;14.25;75.32;101479.47;5023674;28;20046;-76
2023/09/24 07:58:24;;;;;;;1.67;0.30;;;;;;;14.32;75.23;101488.09;5023015;28;20060;-78
2023/09/24 08:00:52;;;;;;;2.58;0.10;;;;;;;14.36;74.77;101479.22;5021803;28;20045;-76
2023/09/24 08:03:19;;;;;;;6.10;0.85;;;;;;;14.45;74.51;101484.28;5024777;28;20721;-76
2023/09/24 08:05:46;;;;;;;3.30;0.10;;;;;;;14.52;74.37;101485.03;5022913;28;20054;-78
2023/09/24 08:08:13;;;;;;;4.05;0.20;;;;;;;14.60;74.11;101501.50;5019962;28;20041;-78
2023/09/24 08:10:41;;;;;;;0.98;0.10;;;;;;;14.66;73.48;101503.09;5028834;28;20052;-80
2023/09/24 08:13:08;;;;;;;5.10;0.20;;;;;;;14.72;73.55;101502.97;5024703;28;20081;-77
2023/09/24 08:15:36;;;;;;;1.58;0.10;;;;;;;14.77;73.16;101501.97;5018843;28;20128;-78
2023/09/24 08:18:08;;;;;;;0.75;0.20;;;;;;;14.81;72.97;101503.59;5017107;28;20049;-78
2023/09/24 08:20:36;;;;;;;2.40;0.10;;;;;;;14.87;72.77;101505.22;5029654;28;20107;-78
2023/09/24 08:23:03;;;;;;;2.50;0.10;;;;;;;14.92;72.45;101507.75;5027385;28;20056;-78
2023/09/24 08:25:30;;;;;;;3.88;0.10;;;;;;;14.99;72.61;101504.91;5025478;28;20044;-79
2023/09/24 08:27:59;;;;;;;3.67;0.10;;;;;;;15.04;71.99;101520.59;5026587;28;20049;-79
2023/09/24 08:30:29;;;;;;;2.22;0.35;;;;;;;15.10;71.48;101514.31;5018461;28;20052;-79
2023/09/24 08:32:56;;;;;;;1.90;0.15;;;;;;;15.13;71.62;101514.22;5027664;28;20088;-79
2023/09/24 08:35:23;;;;;;;3.50;0.10;;;;;;;15.17;70.94;101521.13;5025955;28;20046;-78
2023/09/24 08:37:50;;;;;;;0.40;0.10;;;;;;;15.20;70.48;101515.81;5020010;28;20064;-78
2023/09/24 08:40:17;;;;;;;2.35;0.10;;;;;;;15.24;70.21;101520.94;5019346;28;20061;-79
2023/09/24 08:42:47;;;;;;;2.67;0.30;;;;;;;15.26;69.92;101521.78;5016757;28;20207;-79
2023/09/24 08:45:18;;;;;;;2.42;0.10;;;;;;;15.31;69.66;101526.91;5024469;28;20092;-79
2023/09/24 08:47:46;;;;;;;0.75;0.10;;;;;;;15.35;69.23;101531.19;5026598;28;20041;-79
2023/09/24 08:50:14;;;;;;;2.33;0.17;;;;;;;15.38;69.11;101533.75;5026494;28;20062;-79
2023/09/24 08:52:42;;;;;;;2.05;0.10;;;;;;;15.40;69.33;101534.59;5027892;28;20056;-79
2023/09/24 08:55:10;;;;;;;1.13;0.20;;;;;;;15.43;68.62;101544.16;5022370;28;20049;-74
2023/09/24 08:57:37;;;;;;;0.63;0.10;;;;;;;15.42;68.47;101530.13;5022035;28;20100;-75
2023/09/24 09:00:06;;;;;;;1.15;0.10;;;;;;;15.46;68.53;101541.44;5016173;28;20046;-75
2023/09/24 09:02:34;;;;;;;2.92;0.10;;;;;;;15.51;68.39;101552.69;5022182;28;20045;-74
2023/09/24 09:05:01;;;;;;;1.00;0.00;;;;;;;15.51;68.23;101547.44;5017590;28;20058;-74
2023/09/24 09:07:28;;;;;;;1.95;0.10;;;;;;;15.52;67.81;101547.41;5017124;28;20045;-75
2023/09/24 09:09:55;;;;;;;0.30;0.10;;;;;;;15.53;67.93;101546.50;5010273;28;20079;-74
2023/09/24 09:12:24;;;;;;;1.45;0.10;;;;;;;15.56;67.39;101549.97;5015264;28;20052;-75
2023/09/24 09:14:51;;;;;;;1.08;0.10;;;;;;;15.59;67.58;101563.91;5017665;28;20041;-75
2023/09/24 09:17:18;;;;;;;2.65;0.10;;;;;;;15.89;66.27;101558.75;5027414;28;20050;-77
2023/09/24 09:19:52;;;;;;;1.33;0.10;;;;;;;15.99;65.25;101565.47;5026035;28;20059;-77
2023/09/24 09:22:21;;;;;;;2.83;0.10;;;;;;;15.91;65.58;101568.34;5023774;28;20554;-77
2023/09/24 09:24:50;;;;;;;4.30;0.10;;;;;;;15.89;65.87;101575.41;5022113;28;20056;-77
2023/09/24 09:27:16;;;;;;;0.20;0.00;;;;;;;15.94;65.94;101570.88;5021852;28;20065;-77
2023/09/24 09:29:42;;;;;;;0.80;0.10;;;;;;;15.98;65.72;101568.16;5024140;28;20159;-77
2023/09/24 09:32:09;;;;;;;2.35;0.10;;;;;;;16.12;65.48;101573.91;5026414;28;20546;-77
2023/09/24 09:34:36;;;;;;;4.43;0.10;;;;;;;16.19;65.58;101584.25;5021294;28;20506;-77
2023/09/24 09:37:17;;;;;;;0.95;0.10;;;;;;;16.23;65.44;101587.66;5023336;28;20042;-77
2023/09/24 09:39:45;;;;;;;1.42;0.10;;;;;;;16.21;65.16;101585.94;5018195;28;20059;-78
2023/09/24 09:42:19;;;;;;;3.17;0.10;;;;;;;16.19;65.12;101583.34;5027545;28;20133;-77
2023/09/24 09:44:49;;;;;;;0.90;0.00;;;;;;;16.20;65.15;101598.28;5021948;28;20450;-76
2023/09/24 09:47:19;;;;;;;0.70;0.22;;;;;;;16.22;65.01;101603.50;5017990;28;20037;-77
2023/09/24 09:49:59;;;;;;;1.42;0.10;;;;;;;16.23;64.44;101606.09;5023060;28;20064;-77
2023/09/24 09:52:34;;;;;;;3.17;0.20;;;;;;;16.26;64.41;101611.28;5027745;28;20037;-79
2023/09/24 09:55:03;;;;;;;;;;;;;;;16.29;65.32;101611.19;5023613;28;20141;-77
2023/09/24 09:57:32;;;;;;;0.10;0.00;;;;;;;16.28;65.03;101614.75;5026203;28;19925;-77
2023/09/24 09:59:59;;;;;;;1.40;0.10;;;;;;;16.33;64.71;101618.09;5024311;28;20045;-77
2023/09/24 10:02:28;;;;;;;1.77;0.10;;;;;;;16.36;64.66;101622.41;5026694;28;20056;-77
2023/09/24 10:04:58;;;;;;;1.98;0.10;;;;;;;16.37;64.38;101614.47;5024619;28;20057;-73
2023/09/24 10:07:25;;;;;;;2.38;0.10;;;;;;;16.40;64.10;101626.69;5034421;28;20045;-78
2023/09/24 10:09:53;;;;;;;2.28;0.28;;;;;;;16.37;63.52;101624.16;5031878;28;20049;-79
2023/09/24 10:12:38;;;;;;;1.45;0.10;;;;;;;16.41;63.70;101626.63;5023833;28;20050;-78
2023/09/24 10:15:27;;;;;;;3.03;0.20;;;;;;;16.41;63.63;101637.19;5026054;28;20211;-76
2023/09/24 10:18:27;;;;;;;0.98;0.10;;;;;;;16.41;63.93;101636.34;5023077;28;20055;-73
2023/09/24 10:21:03;;;;;;;1.75;0.10;;;;;;;16.41;63.12;101642.47;4946798;29;20047;-73
2023/09/24 10:23:34;;;;;;;0.30;0.10;;;;;;;16.42;62.59;101648.59;4946567;29;20781;-73
2023/09/24 10:26:05;;;;;;;0.30;0.00;;;;;;;16.41;62.72;101639.81;4986963;28;20054;-73
2023/09/24 10:28:58;;;;;;;1.77;0.00;;;;;;;16.42;62.73;101652.13;5017556;28;20061;-74
2023/09/24 10:31:25;;;;;;;1.60;0.10;;;;;;;16.33;62.60;101644.44;4982255;28;20054;-74
2023/09/24 10:33:56;;;;;;;0.70;0.20;;;;;;;16.41;62.59;101655.66;5015135;28;20054;-74
2023/09/24 10:36:28;;;;;;;0.20;0.10;;;;;;;16.42;62.76;101660.03;5020107;28;20099;-74
2023/09/24 10:39:03;;;;;;;2.88;0.10;;;;;;;16.44;62.61;101661.75;5017775;28;20061;-74
2023/09/24 10:41:32;;;;;;;1.25;0.10;;;;;;;16.44;62.40;101664.38;5022896;28;20049;-74
2023/09/24 10:44:24;;;;;;;1.23;0.00;;;;;;;16.45;62.17;101674.03;5016815;28;20045;-74
2023/09/24 10:46:51;;;;;;;0.93;0.10;;;;;;;16.42;61.22;101670.59;5016651;28;20049;-75
2023/09/24 10:49:21;;;;;;;1.98;0.20;;;;;;;16.42;61.34;101675.84;5020822;28;20048;-74
2023/09/24 10:51:48;;;;;;;1.98;0.15;;;;;;;16.40;61.63;101676.81;5017517;28;20069;-75
2023/09/24 10:54:15;;;;;;;0.57;0.10;;;;;;;16.39;61.08;101670.66;5023139;28;20050;-74
2023/09/24 10:56:48;;;;;;;0.38;0.10;;;;;;;16.42;61.55;101682.88;5016010;28;20100;-75
2023/09/24 10:59:15;;;;;;;1.58;0.10;;;;;;;16.42;61.26;101683.75;5019865;28;20494;-74
2023/09/24 11:01:42;;;;;;;0.10;0.00;;;;;;;16.41;61.44;101684.66;5015201;28;20127;-73
2023/09/24 11:04:09;;;;;;;1.70;0.10;;;;;;;16.41;61.09;101687.28;5016537;28;20068;-73
2023/09/24 11:06:37;;;;;;;0.57;0.05;;;;;;;16.40;60.88;101693.47;5020246;28;20061;-73
2023/09/24 11:09:17;;;;;;;0.28;0.10;;;;;;;16.39;60.90;101702.31;5017174;28;20127;-74
2023/09/24 11:11:46;;;;;;;0.30;0.10;;;;;;;16.39;60.45;101701.44;5018247;28;20572;-74
2023/09/24 11:14:22;;;;;;;0.47;0.10;;;;;;;16.35;60.49;101702.44;5020825;28;20045;-74
2023/09/24 11:16:49;;;;;;;0.75;0.10;;;;;;;16.38;59.45;101705.84;5027346;28;20050;-76
2023/09/24 11:19:42;;;;;;;2.08;0.00;;;;;;;16.36;60.21;101698.88;5019439;28;20038;-75
2023/09/24 11:22:19;;;;;;;0.43;0.00;;;;;;;16.33;59.90;101702.47;5020494;28;20049;-76
2023/09/24 11:24:46;;;;;;;0.10;0.10;;;;;;;16.34;59.92;101720.03;5014527;28;20133;-77
2023/09/24 11:27:15;;;;;;;0.38;0.17;;;;;;;16.34;59.49;101720.03;5024470;28;20111;-76
2023/09/24 11:29:56;;;;;;;1.70;0.00;;;;;;;16.31;60.03;101720.13;5020990;28;20464;-76
2023/09/24 11:32:25;;;;;;;0.20;0.00;;;;;;;16.29;59.84;101721.06;5017589;28;20055;-77
2023/09/24 11:35:05;;;;;;;0.68;0.10;;;;;;;16.25;59.89;101725.56;5025840;28;20050;-75